Time;durP1;ratioP1;P1;durP2;ratioP2;P2;SDS_P1;SDS_P2;PMS_P1;PMS_P2;Temp;Humidity;BMP_temperature;BMP_pressure;BME280_temperature;BME280_humidity;BME280_pressure;Samples;Min_cycle;Max_cycle;Signal;HPM_P1;HPM_P2
2022/04/23 00:02:11;;;;;;;18.40;11.75;;;;;;;5.33;76.10;100101.61;1578644;89;25925;-75
2022/04/23 00:04:38;;;;;;;20.02;14.53;;;;;;;5.31;75.97;100101.78;1569946;89;25896;-75
2022/04/23 00:07:05;;;;;;;21.12;16.10;;;;;;;5.29;76.00;100100.28;1566965;90;27515;-75
2022/04/23 00:09:34;;;;;;;20.92;14.85;;;;;;;5.29;76.07;100098.46;1558961;91;26169;-75
2022/04/23 00:12:01;;;;;;;23.02;13.98;;;;;;;5.32;76.22;100091.48;1568874;90;25874;-75
2022/04/23 00:14:28;;;;;;;22.20;14.75;;;;;;;5.33;76.28;100095.80;1560528;89;26013;-75
2022/04/23 00:16:57;;;;;;;22.75;15.18;;;;;;;5.36;76.49;100092.83;1556939;90;26038;-74
2022/04/23 00:19:23;;;;;;;19.52;14.35;;;;;;;5.39;76.65;100089.83;1570538;89;28342;-76
2022/04/23 00:21:49;;;;;;;20.57;14.63;;;;;;;5.40;76.65;100088.01;1574523;90;25849;-75
2022/04/23 00:24:16;;;;;;;24.30;15.98;;;;;;;5.42;76.67;100089.51;1558649;91;25795;-75
2022/04/23 00:26:42;;;;;;;20.37;14.65;;;;;;;5.44;77.14;100090.66;1558263;91;25941;-75
2022/04/23 00:29:09;;;;;;;19.87;14.28;;;;;;;5.42;76.96;100085.52;1542049;92;25526;-75
2022/04/23 00:31:36;;;;;;;19.67;13.53;;;;;;;5.40;76.96;100080.87;1566378;90;27592;-75
2022/04/23 00:34:03;;;;;;;18.85;12.05;;;;;;;5.37;76.74;100081.69;1567867;90;25952;-75
2022/04/23 00:36:29;;;;;;;16.80;12.90;;;;;;;5.33;76.75;100076.38;1569369;90;25824;-75
2022/04/23 00:38:56;;;;;;;18.05;11.73;;;;;;;5.30;76.74;100072.75;1577779;90;26007;-75
2022/04/23 00:44:08;;;;;;;17.75;11.83;;;;;;;5.23;76.97;100073.06;1563496;89;27534;-75
2022/04/23 00:46:35;;;;;;;16.48;11.28;;;;;;;5.20;77.18;100068.91;1554233;90;25780;-75
2022/04/23 00:49:03;;;;;;;16.55;11.50;;;;;;;5.18;77.22;100061.61;1563159;90;25902;-75
2022/04/23 00:51:32;;;;;;;19.15;13.32;;;;;;;5.17;77.33;100060.45;1570153;90;26606;-75
2022/04/23 00:54:09;;;;;;;23.65;15.35;;;;;;;5.18;77.69;100061.61;1566930;90;26033;-75
2022/04/23 00:56:37;;;;;;;24.98;15.98;;;;;;;5.20;78.32;100054.80;1566828;90;27555;-75
2022/04/23 00:59:06;;;;;;;26.48;16.77;;;;;;;5.22;78.44;100054.97;1566173;89;26485;-75
2022/04/23 01:01:32;;;;;;;26.65;17.15;;;;;;;5.27;78.91;100060.63;1558890;91;26316;-75
2022/04/23 01:04:02;;;;;;;27.35;17.55;;;;;;;5.23;79.17;100055.32;1559643;90;25979;-75
2022/04/23 01:06:27;;;;;;;28.35;17.27;;;;;;;5.20;79.57;100047.67;1568740;90;25821;-75
2022/04/23 01:08:53;;;;;;;23.90;15.85;;;;;;;5.21;79.59;100055.15;1565345;89;27581;-75
2022/04/23 01:11:20;;;;;;;26.30;17.55;;;;;;;5.21;79.75;100046.69;1562617;90;26133;-75
2022/04/23 01:13:46;;;;;;;25.95;17.15;;;;;;;5.24;79.85;100045.50;1576526;90;25947;-75
2022/04/23 01:16:12;;;;;;;26.73;16.12;;;;;;;5.30;79.81;100040.88;1578683;89;26568;-75
2022/04/23 01:18:42;;;;;;;27.00;17.85;;;;;;;5.34;79.92;100031.09;1577722;89;25888;-75
2022/04/23 01:21:10;;;;;;;25.12;16.87;;;;;;;5.37;79.92;100037.37;1559065;91;27489;-75
2022/04/23 01:23:45;;;;;;;23.92;17.45;;;;;;;5.40;79.87;100022.94;1574639;90;26398;-75
2022/04/23 01:26:10;;;;;;;27.13;18.12;;;;;;;5.41;79.73;100018.78;1561727;90;25970;-75
2022/04/23 01:28:37;;;;;;;28.57;17.65;;;;;;;5.44;79.65;100015.80;1565231;90;26773;-75
2022/04/23 01:31:05;;;;;;;24.10;16.40;;;;;;;5.44;79.44;100014.47;1568857;90;26304;-75
2022/04/23 01:33:33;;;;;;;27.07;17.55;;;;;;;5.45;79.24;100012.66;1583495;90;27659;-75
2022/04/23 01:36:00;;;;;;;26.37;17.62;;;;;;;5.46;79.30;100011.15;1566164;90;26644;-75
2022/04/23 01:38:26;;;;;;;28.70;18.20;;;;;;;5.48;79.18;100013.14;1555345;90;25848;-74
2022/04/23 01:40:52;;;;;;;26.60;17.50;;;;;;;5.47;79.26;100006.67;1566451;90;25957;-75
2022/04/23 01:43:18;;;;;;;25.43;17.75;;;;;;;5.43;79.22;100006.16;1566737;90;26577;-74
2022/04/23 01:45:44;;;;;;;27.37;17.35;;;;;;;5.43;79.12;100000.05;1564703;90;28070;-75
2022/04/23 01:48:11;;;;;;;27.32;18.55;;;;;;;5.41;79.15;100005.98;1559319;90;25799;-75
2022/04/23 01:50:37;;;;;;;26.05;18.02;;;;;;;5.39;79.31;100010.16;1578650;89;26172;-75
2022/04/23 01:53:05;;;;;;;29.15;17.87;;;;;;;5.38;79.21;100007.19;1560023;90;26596;-75
2022/04/23 01:55:31;;;;;;;27.17;18.57;;;;;;;5.37;79.14;100006.84;1583923;90;25870;-74
2022/04/23 01:57:58;;;;;;;30.52;21.15;;;;;;;5.34;79.17;99993.91;1557680;90;27564;-75
2022/04/23 02:00:26;;;;;;;26.55;19.92;;;;;;;5.32;79.23;99995.88;1572247;90;25845;-75
2022/04/23 02:02:52;;;;;;;32.80;23.25;;;;;;;5.31;79.29;99981.45;1558873;91;25977;-75
2022/04/23 02:05:18;;;;;;;25.52;18.20;;;;;;;5.30;79.38;99981.14;1571066;90;25884;-75
2022/04/23 02:07:45;;;;;;;32.05;19.50;;;;;;;5.29;79.41;99986.10;1566806;89;25946;-75
2022/04/23 02:10:14;;;;;;;28.85;18.90;;;;;;;5.28;79.49;99989.77;1554919;90;27579;-74
2022/04/23 02:12:42;;;;;;;28.05;18.75;;;;;;;5.25;79.57;99991.42;1562913;90;25804;-75
2022/04/23 02:15:11;;;;;;;26.33;17.98;;;;;;;5.20;79.63;99990.59;1570575;90;25631;-75
2022/04/23 02:17:40;;;;;;;25.82;18.75;;;;;;;5.15;79.65;99988.12;1566540;90;26730;-75
2022/04/23 02:20:13;;;;;;;25.43;17.87;;;;;;;5.08;79.96;99988.44;1566385;90;26577;-74
2022/04/23 02:22:40;;;;;;;29.70;18.40;;;;;;;5.05;79.86;99984.78;1566641;90;28388;-75
2022/04/23 02:25:08;;;;;;;30.27;19.87;;;;;;;5.03;79.76;99984.12;1559032;91;25913;-75
2022/04/23 02:27:46;;;;;;;25.10;17.82;;;;;;;5.02;79.90;99976.67;1558419;91;25851;-75
2022/04/23 02:30:15;;;;;;;30.37;19.05;;;;;;;5.00;79.88;99980.48;1562953;90;26343;-75
2022/04/23 02:32:43;;;;;;;29.15;18.73;;;;;;;4.99;79.82;99980.14;1568133;90;25778;-74
2022/04/23 02:35:13;;;;;;;25.27;18.12;;;;;;;4.97;79.82;99972.36;1573227;89;28437;-75
2022/04/23 02:37:42;;;;;;;27.52;18.80;;;;;;;4.97;79.74;99975.01;1575317;90;25922;-74
2022/04/23 02:40:08;;;;;;;25.80;17.98;;;;;;;4.95;79.57;99980.14;1573479;90;26260;-75
2022/04/23 02:42:37;;;;;;;29.00;19.02;;;;;;;4.93;79.85;99983.47;1566927;90;26588;-75
2022/04/23 02:45:08;;;;;;;29.90;19.67;;;;;;;4.93;80.10;99978.16;1555157;90;25894;-75
2022/04/23 02:47:57;;;;;;;27.25;19.23;;;;;;;4.91;80.31;99981.47;1574507;90;27608;-75
2022/04/23 02:50:27;;;;;;;30.65;19.25;;;;;;;4.87;79.98;99983.64;1560067;90;26538;-75
2022/04/23 02:52:56;;;;;;;27.33;19.10;;;;;;;4.85;80.11;99975.51;1568085;90;25850;-75
2022/04/23 02:55:25;;;;;;;29.05;18.60;;;;;;;4.82;80.21;99980.64;1572331;90;25952;-74
2022/04/23 02:57:52;;;;;;;29.63;18.95;;;;;;;4.81;80.03;99975.51;1575126;90;26050;-75
2022/04/23 03:00:19;;;;;;;28.70;19.67;;;;;;;4.79;79.89;99969.02;1566973;89;27574;-75
2022/04/23 03:02:47;;;;;;;30.55;20.75;;;;;;;4.77;79.86;99972.86;1580650;90;25941;-75
2022/04/23 03:05:14;;;;;;;28.25;19.85;;;;;;;4.73;80.10;99967.55;1559012;91;25994;-75
2022/04/23 03:07:43;;;;;;;27.85;18.87;;;;;;;4.71;80.17;99970.34;1554905;91;25890;-75
2022/04/23 03:10:13;;;;;;;28.10;19.85;;;;;;;4.72;80.09;99969.86;1554890;90;25856;-75
2022/04/23 03:12:39;;;;;;;26.80;18.27;;;;;;;4.69;80.07;99967.87;1554586;90;28144;-75
2022/04/23 03:15:10;;;;;;;29.18;19.23;;;;;;;4.68;80.03;99968.84;1572314;90;25967;-75
2022/04/23 03:17:36;;;;;;;;;;;;;;;4.68;80.34;99969.37;1561314;91;26462;-75
2022/04/23 03:20:04;;;;;;;28.45;19.60;;;;;;;4.65;80.25;99974.50;1559276;91;26577;-75
2022/04/23 03:22:30;;;;;;;27.73;18.92;;;;;;;4.58;80.35;99971.33;1564245;90;25767;-74
2022/04/23 03:24:57;;;;;;;29.02;20.27;;;;;;;4.54;80.08;99971.32;1578538;90;27485;-75
2022/04/23 03:27:23;;;;;;;31.57;19.60;;;;;;;4.49;80.32;99965.17;1566699;90;26657;-75
2022/04/23 03:29:49;;;;;;;32.00;21.15;;;;;;;4.46;80.61;99965.52;1570549;89;25828;-74
2022/04/23 03:32:16;;;;;;;30.30;20.55;;;;;;;4.46;81.14;99962.03;1570115;89;25852;-75
2022/04/23 03:34:42;;;;;;;32.58;21.00;;;;;;;4.47;81.24;99971.14;1570063;89;25863;-75
2022/04/23 03:37:09;;;;;;;28.20;20.32;;;;;;;4.52;81.27;99970.66;1572967;89;27486;-75
2022/04/23 03:39:36;;;;;;;30.95;21.00;;;;;;;4.55;81.30;99974.32;1566784;90;25833;-74
2022/04/23 03:42:04;;;;;;;30.00;19.82;;;;;;;4.58;81.46;99972.65;1558478;91;25975;-75
2022/04/23 03:44:31;;;;;;;31.80;21.33;;;;;;;4.60;81.67;99972.83;1560314;90;26550;-75
2022/04/23 03:46:59;;;;;;;29.05;19.73;;;;;;;4.63;81.59;99979.63;1557538;90;25838;-75
2022/04/23 03:49:25;;;;;;;30.40;19.23;;;;;;;4.66;81.72;99976.14;1556005;90;27527;-75
2022/04/23 03:51:52;;;;;;;29.48;19.87;;;;;;;4.71;81.91;99976.98;1567334;90;25807;-74
2022/04/23 03:54:19;;;;;;;31.50;19.30;;;;;;;4.75;82.09;99978.83;1572260;90;25811;-75
2022/04/23 03:56:46;;;;;;;30.32;20.32;;;;;;;4.78;82.16;99974.50;1579347;89;25877;-75
2022/04/23 03:59:13;;;;;;;30.27;19.17;;;;;;;4.82;82.39;99977.98;1557349;91;26084;-74
2022/04/23 04:01:39;;;;;;;29.92;20.88;;;;;;;4.84;82.37;99973.84;1571082;90;27570;-75
2022/04/23 04:04:05;;;;;;;31.93;20.45;;;;;;;4.84;82.34;99976.00;1564622;90;26082;-75
2022/04/23 04:06:32;;;;;;;29.45;20.10;;;;;;;4.87;82.41;99978.33;1565466;90;26372;-74
2022/04/23 04:08:58;;;;;;;31.80;20.12;;;;;;;4.89;82.53;99975.02;1565629;90;25803;-75
2022/04/23 04:11:25;;;;;;;25.80;19.45;;;;;;;4.96;82.57;99971.20;1566779;89;25925;-75
2022/04/23 04:13:52;;;;;;;30.10;21.20;;;;;;;5.00;82.61;99968.05;1564940;90;27501;-75
2022/04/23 04:16:20;;;;;;;30.85;20.37;;;;;;;5.04;82.60;99963.23;1554885;90;25789;-75
2022/04/23 04:18:46;;;;;;;29.20;20.85;;;;;;;5.09;82.53;99967.55;1567211;90;25870;-75
2022/04/23 04:21:14;;;;;;;29.10;20.27;;;;;;;5.12;82.51;99970.69;1569161;89;25749;-75
2022/04/23 04:23:41;;;;;;;31.82;21.30;;;;;;;5.15;82.41;99970.37;1557198;90;25941;-75
2022/04/23 04:26:07;;;;;;;30.92;20.20;;;;;;;5.19;82.46;99965.55;1567060;90;27544;-75
2022/04/23 04:28:35;;;;;;;30.80;20.27;;;;;;;5.23;82.54;99969.52;1568252;90;26538;-75
2022/04/23 04:33:45;;;;;;;29.18;19.35;;;;;;;5.31;82.87;99965.52;1564806;90;26569;-75
2022/04/23 04:36:12;;;;;;;24.92;18.92;;;;;;;5.33;82.99;99967.02;1564721;90;25911;-75
2022/04/23 04:38:38;;;;;;;26.70;18.40;;;;;;;5.32;82.93;99970.65;1566495;90;27467;-75
2022/04/23 04:41:04;;;;;;;30.23;19.50;;;;;;;5.33;83.10;99974.14;1568794;90;26112;-75
2022/04/23 04:43:31;;;;;;;27.58;19.40;;;;;;;5.31;83.01;99969.01;1559108;90;25973;-75
2022/04/23 04:45:57;;;;;;;26.42;19.17;;;;;;;5.34;83.23;99967.84;1570423;90;25859;-75
2022/04/23 04:48:23;;;;;;;25.37;18.60;;;;;;;5.39;83.49;99976.13;1558488;89;25825;-75
2022/04/23 04:50:49;;;;;;;25.35;17.15;;;;;;;5.39;83.44;99980.94;1568337;89;27545;-75
2022/04/23 04:53:16;;;;;;;26.77;18.20;;;;;;;5.40;83.70;99977.30;1572422;90;25782;-75
2022/04/23 04:55:42;;;;;;;25.70;17.32;;;;;;;5.38;83.79;99979.30;1563399;89;25909;-75
2022/04/23 04:58:09;;;;;;;23.62;17.42;;;;;;;5.36;83.93;99984.44;1567686;89;25915;-75
2022/04/23 05:00:35;;;;;;;25.20;17.40;;;;;;;5.34;84.04;99985.95;1568492;90;25376;-74
2022/04/23 05:03:01;;;;;;;27.10;18.30;;;;;;;5.33;84.09;99983.44;1569074;90;28346;-75
2022/04/23 05:05:27;;;;;;;29.30;19.27;;;;;;;5.34;84.21;99979.80;1553161;90;25841;-74
2022/04/23 05:07:54;;;;;;;27.45;19.42;;;;;;;5.36;84.18;99987.09;1556107;90;26657;-75
2022/04/23 05:10:20;;;;;;;23.92;17.98;;;;;;;5.38;84.36;99981.95;1552430;90;26370;-75
2022/04/23 05:12:46;;;;;;;28.20;19.77;;;;;;;5.41;84.51;99981.59;1558414;91;25844;-74
2022/04/23 05:15:12;;;;;;;28.15;18.98;;;;;;;5.44;84.66;99981.77;1551742;90;27479;-74
2022/04/23 05:17:39;;;;;;;29.77;19.90;;;;;;;5.49;84.78;99981.58;1556242;91;25890;-75
2022/04/23 05:20:07;;;;;;;28.80;20.35;;;;;;;5.57;84.98;99988.72;1558905;91;25374;-75
2022/04/23 05:22:33;;;;;;;27.27;18.73;;;;;;;5.62;85.05;99992.20;1575326;89;26500;-75
2022/04/23 05:24:59;;;;;;;28.12;19.82;;;;;;;5.63;85.07;99988.52;1562578;91;26161;-75
2022/04/23 05:27:26;;;;;;;27.93;19.48;;;;;;;5.65;85.06;99991.84;1553934;91;26960;-76
2022/04/23 05:29:52;;;;;;;27.52;19.42;;;;;;;5.68;85.38;99994.16;1561393;91;26085;-76
2022/04/23 05:32:18;;;;;;;27.42;20.20;;;;;;;5.72;85.25;99991.00;1547503;91;25840;-76
2022/04/23 05:34:45;;;;;;;31.35;20.43;;;;;;;5.78;85.51;99993.47;1557605;91;25764;-76
2022/04/23 05:37:11;;;;;;;26.65;19.02;;;;;;;5.83;85.57;99987.16;1564435;91;25868;-75
2022/04/23 05:39:37;;;;;;;26.90;18.55;;;;;;;5.89;85.68;99986.48;1555128;91;27506;-76
2022/04/23 05:42:05;;;;;;;28.45;19.35;;;;;;;5.95;85.56;99990.62;1547631;91;26003;-76
2022/04/23 05:44:31;;;;;;;25.80;19.12;;;;;;;6.03;85.64;99991.11;1556176;90;26035;-76
2022/04/23 05:46:57;;;;;;;27.17;18.90;;;;;;;6.08;85.61;99988.73;1565847;90;26529;-76
2022/04/23 05:49:23;;;;;;;28.67;20.50;;;;;;;6.17;85.33;99993.03;1568688;90;25358;-76
2022/04/23 05:51:49;;;;;;;29.42;20.17;;;;;;;6.23;85.51;99991.00;1574470;90;27565;-76
2022/04/23 05:54:16;;;;;;;25.00;19.12;;;;;;;6.35;85.58;99994.11;1576841;89;25913;-76
2022/04/23 05:56:42;;;;;;;25.68;19.07;;;;;;;6.47;85.74;99995.36;1570459;89;25808;-76
2022/04/23 05:59:08;;;;;;;26.07;17.90;;;;;;;6.56;85.96;99989.84;1574260;89;26509;-76
2022/04/23 06:01:34;;;;;;;24.70;18.65;;;;;;;6.63;85.04;99994.76;1564791;90;25783;-76
2022/04/23 06:04:00;;;;;;;25.15;18.10;;;;;;;6.76;85.48;99987.02;1556326;90;27554;-76
2022/04/23 06:06:27;;;;;;;24.70;17.67;;;;;;;6.89;85.21;99990.42;1562331;90;25903;-76
2022/04/23 06:08:53;;;;;;;23.55;17.92;;;;;;;7.01;84.93;99991.15;1566428;90;25871;-76
2022/04/23 06:11:19;;;;;;;27.73;17.62;;;;;;;7.14;84.69;99987.91;1568715;89;25870;-76
2022/04/23 06:13:45;;;;;;;24.52;18.48;;;;;;;7.25;84.41;99988.79;1568577;89;25912;-76
2022/04/23 06:16:11;;;;;;;22.87;17.50;;;;;;;7.41;84.84;99987.33;1578900;89;27468;-76
2022/04/23 06:18:38;;;;;;;21.73;15.50;;;;;;;7.57;84.48;99985.02;1568601;89;26546;-76
2022/04/23 06:21:04;;;;;;;19.65;14.93;;;;;;;7.70;84.22;99987.84;1573959;89;25891;-76
2022/04/23 06:23:30;;;;;;;20.35;16.23;;;;;;;7.89;84.55;99989.96;1572601;90;25841;-76
2022/04/23 06:25:56;;;;;;;19.98;14.20;;;;;;;8.08;83.72;99981.92;1566422;89;26561;-76
2022/04/23 06:28:22;;;;;;;17.57;14.07;;;;;;;8.20;83.12;99991.09;1575659;90;27652;-76
2022/04/23 06:30:49;;;;;;;19.20;13.13;;;;;;;8.26;82.91;99981.88;1577854;90;26593;-76
2022/04/23 06:33:15;;;;;;;15.58;12.13;;;;;;;8.32;82.22;99969.61;1578847;90;25899;-76
2022/04/23 06:35:41;;;;;;;15.23;12.63;;;;;;;8.38;82.38;99968.89;1579250;89;25849;-79
2022/04/23 06:38:08;;;;;;;16.05;13.00;;;;;;;8.40;81.74;99963.66;1578796;90;26476;-76
2022/04/23 06:40:35;;;;;;;20.05;13.25;;;;;;;8.45;81.94;99973.77;1578944;90;27489;-76
2022/04/23 06:43:02;;;;;;;15.38;11.30;;;;;;;8.48;82.16;99970.74;1578540;89;25856;-76
2022/04/23 06:45:30;;;;;;;13.70;11.20;;;;;;;8.52;81.61;99977.36;1578764;90;25734;-76
2022/04/23 06:48:04;;;;;;;13.90;11.55;;;;;;;8.55;81.69;99977.80;1578876;89;26106;-76
2022/04/23 06:50:28;;;;;;;12.23;9.88;;;;;;;8.61;81.46;99976.73;1578934;90;26533;-75
2022/04/23 06:52:55;;;;;;;12.05;10.43;;;;;;;8.63;80.98;99975.53;1579008;90;27536;-75
2022/04/23 06:55:23;;;;;;;15.83;11.83;;;;;;;8.66;81.17;99975.13;1579047;90;25793;-75
2022/04/23 06:57:49;;;;;;;17.80;12.40;;;;;;;8.72;81.42;99973.56;1578903;90;25871;-75
2022/04/23 07:00:16;;;;;;;14.68;11.65;;;;;;;8.80;81.19;99978.27;1579225;89;25861;-75
2022/04/23 07:02:42;;;;;;;14.35;11.70;;;;;;;8.84;80.95;99970.70;1578869;90;25957;-76
2022/04/23 07:05:09;;;;;;;17.55;11.63;;;;;;;8.90;80.77;99977.94;1579050;90;28358;-76
2022/04/23 07:07:35;;;;;;;17.80;13.38;;;;;;;8.93;80.42;99981.08;1578795;90;25872;-76
2022/04/23 07:10:02;;;;;;;14.55;12.80;;;;;;;8.97;80.53;99973.50;1578716;90;25779;-76
2022/04/23 07:12:28;;;;;;;19.67;13.53;;;;;;;8.99;80.17;99980.81;1579174;90;25916;-76
2022/04/23 07:14:54;;;;;;;13.30;11.80;;;;;;;9.00;80.09;99979.80;1578567;90;26653;-76
2022/04/23 07:17:24;;;;;;;12.35;11.05;;;;;;;9.04;79.93;99981.07;1578937;90;27501;-75
2022/04/23 07:19:53;;;;;;;15.90;12.33;;;;;;;9.04;79.50;99983.24;1579188;90;25815;-75
2022/04/23 07:22:19;;;;;;;16.82;13.05;;;;;;;9.05;79.41;99976.03;1578732;90;25957;-75
2022/04/23 07:24:49;;;;;;;16.73;12.58;;;;;;;9.08;79.47;99971.66;1578965;89;25865;-75
2022/04/23 07:27:15;;;;;;;20.68;15.85;;;;;;;9.14;79.72;99969.54;1579063;90;26080;-75
2022/04/23 07:29:41;;;;;;;15.32;11.73;;;;;;;9.18;79.38;99969.47;1578814;90;27495;-75
2022/04/23 07:32:08;;;;;;;16.48;12.90;;;;;;;9.23;78.73;99974.57;1579089;90;26567;-75
2022/04/23 07:37:34;;;;;;;17.17;14.45;;;;;;;9.29;79.38;99968.45;1578961;89;25753;-75
2022/04/23 07:40:10;;;;;;;17.12;14.28;;;;;;;9.34;78.54;99965.20;1579080;90;26577;-75
2022/04/23 07:42:34;;;;;;;20.05;14.73;;;;;;;9.37;78.68;99963.45;1579095;90;27474;-75
2022/04/23 07:45:01;;;;;;;15.45;12.00;;;;;;;9.41;78.82;99973.27;1578750;89;25800;-75
2022/04/23 07:47:29;;;;;;;17.50;13.10;;;;;;;9.43;78.45;99962.67;1579073;90;26046;-75
2022/04/23 07:49:56;;;;;;;15.93;12.20;;;;;;;9.44;77.95;99964.84;1575334;89;25800;-75
2022/04/23 07:52:22;;;;;;;14.35;12.73;;;;;;;9.44;77.87;99963.50;1577123;90;25782;-75
2022/04/23 07:54:48;;;;;;;15.48;12.93;;;;;;;9.45;77.60;99957.98;1568880;90;28368;-75
2022/04/23 07:57:24;;;;;;;15.50;12.90;;;;;;;9.50;77.85;99956.88;1576377;90;25853;-75
2022/04/23 07:59:50;;;;;;;16.10;12.40;;;;;;;9.55;77.78;99959.80;1578294;90;25850;-75
2022/04/23 08:02:16;;;;;;;15.20;12.78;;;;;;;9.55;77.18;99955.78;1567845;90;26588;-76
2022/04/23 08:04:42;;;;;;;13.53;11.12;;;;;;;9.56;77.84;99956.62;1575638;90;26302;-75
2022/04/23 08:07:09;;;;;;;12.25;10.90;;;;;;;9.65;77.78;99958.09;1559730;90;27488;-76
2022/04/23 08:09:39;;;;;;;14.73;11.38;;;;;;;9.73;78.56;99956.63;1577982;89;25944;-76
2022/04/23 08:12:06;;;;;;;15.15;11.70;;;;;;;9.78;77.09;99959.52;1559902;90;26545;-76
2022/04/23 08:14:33;;;;;;;15.38;11.68;;;;;;;9.80;76.99;99953.45;1569206;90;26535;-76
2022/04/23 08:16:59;;;;;;;19.23;11.80;;;;;;;9.92;77.09;99960.72;1578002;89;25997;-76
2022/04/23 08:19:26;;;;;;;13.95;11.25;;;;;;;10.08;77.44;99946.19;1568366;90;27517;-76
2022/04/23 08:21:52;;;;;;;12.43;9.93;;;;;;;10.31;78.03;99943.24;1566334;90;26683;-76
2022/04/23 08:24:22;;;;;;;10.63;9.00;;;;;;;10.43;76.83;99945.13;1579331;90;25749;-76
2022/04/23 08:26:46;;;;;;;12.70;10.38;;;;;;;10.49;76.52;99942.15;1573936;90;25831;-76
2022/04/23 08:31:57;;;;;;;11.57;10.15;;;;;;;10.68;75.87;99939.52;1566729;89;28488;-76
2022/04/23 08:34:23;;;;;;;11.97;10.08;;;;;;;10.75;75.86;99941.70;1568542;89;25771;-76
2022/04/23 08:36:50;;;;;;;11.75;9.70;;;;;;;10.75;74.79;99944.89;1578826;89;25479;-75
2022/04/23 08:39:16;;;;;;;11.85;9.65;;;;;;;10.68;74.12;99946.73;1573162;89;25861;-76
2022/04/23 08:41:45;;;;;;;10.93;9.13;;;;;;;10.63;74.87;99947.84;1576139;89;25980;-76
2022/04/23 08:44:11;;;;;;;13.70;10.55;;;;;;;10.64;74.26;99948.16;1556273;90;27521;-76
2022/04/23 08:46:40;;;;;;;12.07;9.03;;;;;;;10.57;74.08;99942.79;1546881;91;25731;-76
2022/04/23 08:49:16;;;;;;;12.20;8.78;;;;;;;10.53;74.02;99944.73;1537856;91;25793;-76
2022/04/23 08:51:52;;;;;;;8.25;7.30;;;;;;;10.46;73.84;99938.02;1584307;88;25890;-76
2022/04/23 08:54:18;;;;;;;10.85;6.87;;;;;;;10.46;73.94;99937.19;1560581;90;26511;-76
2022/04/23 08:56:46;;;;;;;7.72;6.87;;;;;;;10.44;73.37;99933.38;1563123;90;27539;-76
2022/04/23 08:59:15;;;;;;;8.88;6.97;;;;;;;10.45;73.75;99933.70;1569015;90;25368;-76
2022/04/23 09:01:44;;;;;;;8.78;6.85;;;;;;;10.50;74.57;99934.44;1548008;91;25797;-76
2022/04/23 09:04:11;;;;;;;10.75;7.08;;;;;;;10.53;74.15;99932.68;1588004;89;26565;-76
2022/04/23 09:06:43;;;;;;;7.55;6.42;;;;;;;10.54;73.83;99927.66;1571578;90;26130;-76
2022/04/23 09:09:14;;;;;;;7.85;7.05;;;;;;;10.55;74.04;99926.61;1560494;91;28328;-76
2022/04/23 09:11:44;;;;;;;8.68;7.58;;;;;;;10.52;72.60;99921.67;1578593;90;25850;-76
2022/04/23 09:14:30;;;;;;;9.80;7.87;;;;;;;10.50;72.96;99917.84;1565706;90;25799;-76
2022/04/23 09:25:40;;;;;;;9.40;7.78;;;;;;;10.84;72.57;99914.20;1586074;89;25850;-76
2022/04/23 09:28:29;;;;;;;;;;;;;;;10.89;72.17;99910.37;1584368;89;25911;-76
2022/04/23 09:30:59;;;;;;;9.20;8.20;;;;;;;10.86;71.38;99912.95;1570438;89;26457;-76
2022/04/23 09:33:43;;;;;;;9.50;8.43;;;;;;;10.88;72.22;99910.89;1575266;90;25758;-76
2022/04/23 09:36:09;;;;;;;10.13;8.53;;;;;;;10.96;72.35;99907.70;1551930;91;27491;-76
2022/04/23 09:38:36;;;;;;;11.50;8.75;;;;;;;11.02;71.85;99909.05;1558586;90;25960;-76
2022/04/23 09:41:15;;;;;;;10.72;8.33;;;;;;;11.04;71.76;99905.64;1557468;91;25409;-76
2022/04/23 09:43:32;;;;;;;10.58;9.20;;;;;;;11.09;72.17;99908.54;1574782;89;25831;-76
2022/04/23 09:46:04;;;;;;;10.65;9.33;;;;;;;11.15;71.69;99905.02;1568837;90;25810;-75
2022/04/23 09:48:31;;;;;;;9.43;8.53;;;;;;;11.19;71.33;99906.77;1576256;90;27479;-76
2022/04/23 09:50:59;;;;;;;10.40;8.83;;;;;;;11.23;71.18;99899.95;1582358;90;25992;-75
2022/04/23 09:53:30;;;;;;;12.05;8.93;;;;;;;11.22;70.82;99899.66;1563127;91;25823;-76
2022/04/23 09:55:59;;;;;;;11.97;10.03;;;;;;;11.24;70.81;99900.27;1564028;90;25931;-76
2022/04/23 09:58:33;;;;;;;10.43;8.93;;;;;;;11.26;71.22;99896.36;1573340;90;25376;-76
2022/04/23 10:00:58;;;;;;;9.55;8.43;;;;;;;11.29;70.29;99903.17;1563960;90;27707;-76
2022/04/23 10:03:30;;;;;;;10.58;8.75;;;;;;;11.25;70.75;99899.23;1558744;91;25823;-76
2022/04/23 10:06:00;;;;;;;10.05;9.05;;;;;;;11.25;70.82;99899.23;1558908;91;25766;-76
2022/04/23 10:08:30;;;;;;;10.28;8.95;;;;;;;11.29;70.68;99901.29;1537094;91;25929;-76
2022/04/23 10:11:08;;;;;;;10.70;9.60;;;;;;;11.34;70.96;99896.14;1567886;90;26981;-76
2022/04/23 10:13:37;;;;;;;10.13;9.10;;;;;;;11.37;70.67;99891.71;1568571;90;28094;-76
2022/04/23 10:16:04;;;;;;;10.00;8.95;;;;;;;11.36;70.50;99894.07;1568640;89;26006;-76
2022/04/23 10:18:32;;;;;;;11.30;9.15;;;;;;;11.35;70.56;99896.97;1576539;90;37323;-76
2022/04/23 10:21:02;;;;;;;11.25;8.73;;;;;;;11.34;70.66;99893.97;1577176;90;26557;-76
2022/04/23 10:23:52;;;;;;;10.03;8.98;;;;;;;11.36;70.58;99892.73;1574490;90;26129;-76
2022/04/23 10:26:54;;;;;;;12.28;9.38;;;;;;;11.41;70.84;99893.45;1571558;90;28372;-75
2022/04/23 10:29:23;;;;;;;10.80;9.43;;;;;;;11.49;71.03;99895.90;1572565;90;26043;-76
2022/04/23 10:32:22;;;;;;;10.50;9.48;;;;;;;11.58;70.83;99884.75;1556364;90;25985;-76
2022/04/23 10:34:49;;;;;;;10.00;9.00;;;;;;;11.72;71.14;99888.23;1526737;92;26003;-76
2022/04/23 10:37:29;;;;;;;10.63;9.53;;;;;;;11.84;71.35;99877.67;1573202;89;25791;-76
2022/04/23 10:40:01;;;;;;;10.43;9.33;;;;;;;11.97;71.65;99877.63;1584127;89;27501;-76
2022/04/23 10:42:31;;;;;;;12.82;10.53;;;;;;;12.07;71.12;99879.33;1574549;88;26536;-75
2022/04/23 10:44:56;;;;;;;13.60;11.35;;;;;;;12.15;71.83;99875.88;1579601;89;25848;-75
2022/04/23 10:47:34;;;;;;;11.18;9.70;;;;;;;12.28;70.73;99862.39;1588054;89;25952;-75
2022/04/23 10:50:21;;;;;;;9.60;8.70;;;;;;;12.43;70.95;99864.77;1585481;89;25840;-75
2022/04/23 10:52:50;;;;;;;10.38;8.45;;;;;;;12.59;70.46;99872.33;1541329;90;27498;-75
2022/04/23 10:55:16;;;;;;;10.08;9.10;;;;;;;12.62;68.80;99869.70;1565891;90;25767;-76
2022/04/23 10:57:49;;;;;;;11.45;9.10;;;;;;;12.64;68.31;99865.77;1548362;91;25817;-75
2022/04/23 11:00:21;;;;;;;11.15;8.58;;;;;;;12.66;66.94;99868.25;1578219;89;26121;-76
2022/04/23 11:02:56;;;;;;;9.98;8.98;;;;;;;12.67;67.65;99868.54;1576661;89;26631;-75
2022/04/23 11:14:45;;;;;;;10.43;8.78;;;;;;;12.83;65.25;99858.06;1563219;90;25947;-75
2022/04/23 11:17:22;;;;;;;10.10;9.00;;;;;;;12.84;66.69;99858.90;1578656;90;25377;-76
2022/04/23 11:19:55;;;;;;;10.23;9.08;;;;;;;12.87;65.85;99856.58;1569231;89;27526;-75
2022/04/23 11:22:22;;;;;;;11.15;9.30;;;;;;;12.98;67.76;99849.16;1572081;90;25875;-76
2022/04/23 11:24:53;;;;;;;10.20;9.20;;;;;;;13.05;66.80;99849.13;1566545;89;26890;-75
2022/04/23 11:27:27;;;;;;;11.90;8.40;;;;;;;13.03;66.36;99849.33;1554355;90;26476;-76
2022/04/23 11:29:55;;;;;;;10.00;8.58;;;;;;;13.13;67.04;99852.36;1559098;91;25814;-75
2022/04/23 11:32:31;;;;;;;13.48;9.20;;;;;;;13.33;67.15;99849.99;1558655;91;28319;-75
2022/04/23 11:35:01;;;;;;;9.33;8.10;;;;;;;13.38;66.43;99852.85;1559043;91;26728;-75
2022/04/23 11:37:35;;;;;;;10.72;8.10;;;;;;;13.32;65.09;99862.64;1561530;90;25883;-76
2022/04/23 11:40:12;;;;;;;11.63;8.68;;;;;;;13.26;65.85;99869.44;1554815;90;25890;-76
2022/04/23 11:42:46;;;;;;;10.20;8.98;;;;;;;13.18;66.21;99861.11;1574194;90;25861;-75
2022/04/23 11:45:15;;;;;;;10.95;9.85;;;;;;;13.11;67.12;99861.17;1571763;90;27507;-75
2022/04/23 11:47:41;;;;;;;9.80;8.68;;;;;;;13.08;67.44;99868.86;1558748;90;25975;-76
2022/04/23 11:50:16;;;;;;;10.38;9.33;;;;;;;13.03;67.22;99874.87;1560621;90;26239;-76
2022/04/23 11:52:45;;;;;;;11.35;9.28;;;;;;;12.97;67.48;99874.41;1568805;90;26252;-75
2022/04/23 11:55:23;;;;;;;10.95;9.85;;;;;;;12.93;67.32;99879.92;1578318;89;25784;-75
2022/04/23 11:58:04;;;;;;;11.80;9.53;;;;;;;12.91;67.57;99873.11;1577574;90;27651;-75
2022/04/23 12:00:33;;;;;;;11.65;8.55;;;;;;;13.03;68.40;99871.34;1576370;90;26644;-75